Time;durP1;ratioP1;P1;durP2;ratioP2;P2;SDS_P1;SDS_P2;PMS_P1;PMS_P2;Temp;Humidity;BMP_temperature;BMP_pressure;BME280_temperature;BME280_humidity;BME280_pressure;Samples;Min_cycle;Max_cycle;Signal;HPM_P1;HPM_P2
2021/11/09 00:02:20;;;;;;;16.92;9.07;;;6.00;99.90;;;;;;5005989;28;20452;-67
2021/11/09 00:04:52;;;;;;;20.30;10.02;;;6.10;99.90;;;;;;5005293;28;20050;-67
2021/11/09 00:10:07;;;;;;;22.58;10.18;;;6.10;99.90;;;;;;5003474;28;20066;-67
2021/11/09 00:12:38;;;;;;;21.75;9.80;;;6.10;99.90;;;;;;5000480;28;20101;-68
2021/11/09 00:15:08;;;;;;;17.77;9.38;;;6.10;99.90;;;;;;5011287;28;20042;-68
2021/11/09 00:17:36;;;;;;;25.42;11.05;;;6.10;99.90;;;;;;5005143;28;20046;-67
2021/11/09 00:20:07;;;;;;;20.02;10.13;;;6.10;99.90;;;;;;5011304;28;20044;-67
2021/11/09 00:22:34;;;;;;;24.60;10.05;;;6.10;99.90;;;;;;5010823;28;20045;-67
2021/11/09 00:25:03;;;;;;;20.33;10.02;;;6.10;99.90;;;;;;5020028;28;20041;-67
2021/11/09 00:27:30;;;;;;;22.23;11.07;;;6.10;99.90;;;;;;5010822;28;20053;-68
2021/11/09 00:29:58;;;;;;;19.60;9.73;;;6.10;99.90;;;;;;5004702;28;20212;-68
2021/11/09 00:32:29;;;;;;;;;;;6.10;99.90;;;;;;5010086;28;20527;-68
2021/11/09 00:34:57;;;;;;;20.67;9.80;;;6.10;99.90;;;;;;5009761;28;20020;-68
2021/11/09 00:37:24;;;;;;;20.60;10.07;;;6.20;99.90;;;;;;5011012;28;20595;-68
2021/11/09 00:39:52;;;;;;;19.13;9.30;;;6.20;99.90;;;;;;5007773;28;20043;-68
2021/11/09 00:42:20;;;;;;;22.95;9.23;;;6.20;99.90;;;;;;5004442;28;20045;-68
2021/11/09 00:44:47;;;;;;;18.65;9.52;;;6.10;99.90;;;;;;5011041;28;20053;-68
2021/11/09 00:47:14;;;;;;;18.15;9.38;;;6.20;99.90;;;;;;5003729;28;20100;-67
2021/11/09 00:49:42;;;;;;;20.67;9.43;;;6.10;99.90;;;;;;5013665;28;20049;-68
2021/11/09 00:52:11;;;;;;;17.77;9.48;;;6.10;99.90;;;;;;5007671;28;20461;-68
2021/11/09 00:54:39;;;;;;;20.17;9.25;;;6.10;99.90;;;;;;5013418;28;20047;-68
2021/11/09 00:57:07;;;;;;;23.23;10.05;;;6.10;99.90;;;;;;5007304;28;20165;-68
2021/11/09 00:59:34;;;;;;;25.20;10.15;;;6.10;99.90;;;;;;5014683;28;20133;-68
2021/11/09 01:02:03;;;;;;;20.95;9.27;;;6.10;99.90;;;;;;5004238;28;20042;-68
2021/11/09 01:04:31;;;;;;;22.25;9.63;;;6.10;99.90;;;;;;5007406;28;20133;-68
2021/11/09 01:06:59;;;;;;;17.40;9.63;;;6.10;99.90;;;;;;5011591;28;20045;-68
2021/11/09 01:09:26;;;;;;;24.38;9.95;;;6.10;99.90;;;;;;5011631;28;20049;-68
2021/11/09 01:11:54;;;;;;;18.73;10.02;;;6.10;99.90;;;;;;5013037;28;20066;-68
2021/11/09 01:14:24;;;;;;;19.27;9.88;;;6.10;99.90;;;;;;5010453;28;20069;-68
2021/11/09 01:16:53;;;;;;;18.05;9.50;;;6.10;99.90;;;;;;5009323;28;20050;-68
2021/11/09 01:19:21;;;;;;;23.27;9.77;;;6.10;99.90;;;;;;5012159;28;20076;-68
2021/11/09 01:21:51;;;;;;;20.17;10.00;;;6.10;99.90;;;;;;5014335;28;20073;-68
2021/11/09 01:24:19;;;;;;;17.02;8.68;;;6.00;99.90;;;;;;5013905;28;20030;-68
2021/11/09 01:26:47;;;;;;;20.95;9.73;;;6.10;99.90;;;;;;5011499;28;20133;-68
2021/11/09 01:29:15;;;;;;;19.92;9.02;;;6.00;99.90;;;;;;5004422;28;20462;-68
2021/11/09 01:31:43;;;;;;;15.93;8.20;;;6.00;99.90;;;;;;5012901;28;20068;-68
2021/11/09 01:34:11;;;;;;;15.38;8.43;;;6.00;99.90;;;;;;5013048;28;20061;-68
2021/11/09 01:36:38;;;;;;;22.08;9.90;;;6.00;99.90;;;;;;5012435;28;20046;-69
2021/11/09 01:39:08;;;;;;;16.63;9.20;;;6.00;99.90;;;;;;5013829;28;20408;-68
2021/11/09 01:41:35;;;;;;;20.67;9.82;;;6.00;99.90;;;;;;5013074;28;20046;-69
2021/11/09 01:44:04;;;;;;;19.25;9.27;;;6.10;99.90;;;;;;5014200;28;20045;-68
2021/11/09 01:46:33;;;;;;;18.08;8.90;;;6.00;99.90;;;;;;5013325;28;20042;-68
2021/11/09 01:49:01;;;;;;;19.23;9.15;;;6.00;99.90;;;;;;5013411;28;20096;-68
2021/11/09 01:51:29;;;;;;;21.13;9.20;;;6.00;99.90;;;;;;5013291;28;20056;-68
2021/11/09 01:53:58;;;;;;;18.48;9.00;;;6.00;99.90;;;;;;5013856;28;20073;-68
2021/11/09 01:56:29;;;;;;;16.35;8.70;;;6.00;99.90;;;;;;5013747;28;20129;-68
2021/11/09 01:58:57;;;;;;;15.82;8.30;;;6.00;99.90;;;;;;5013577;28;20073;-68
2021/11/09 02:01:26;;;;;;;18.13;9.68;;;6.00;99.90;;;;;;5011086;28;20046;-68
2021/11/09 02:03:56;;;;;;;15.77;8.48;;;6.00;99.90;;;;;;5013015;28;20052;-68
2021/11/09 02:06:25;;;;;;;16.10;9.15;;;6.00;99.90;;;;;;5009171;28;20099;-68
2021/11/09 02:08:59;;;;;;;18.27;9.35;;;5.90;99.90;;;;;;5010803;28;20050;-68
2021/11/09 02:11:27;;;;;;;14.05;8.20;;;5.90;99.90;;;;;;4999735;28;20474;-68
2021/11/09 02:13:55;;;;;;;17.20;8.80;;;5.90;99.90;;;;;;5012721;28;20432;-68
2021/11/09 02:16:24;;;;;;;18.52;9.65;;;5.90;99.90;;;;;;5011883;28;20042;-68
2021/11/09 02:18:52;;;;;;;16.02;9.65;;;5.90;99.90;;;;;;5013548;28;20061;-68
2021/11/09 02:21:19;;;;;;;18.83;9.43;;;5.90;99.90;;;;;;5012100;28;20412;-68
2021/11/09 02:23:47;;;;;;;17.92;9.00;;;5.90;99.90;;;;;;5013111;28;20042;-68
2021/11/09 02:26:19;;;;;;;21.33;8.90;;;5.90;99.90;;;;;;5007697;28;20126;-68
2021/11/09 02:28:48;;;;;;;18.48;9.77;;;5.90;99.90;;;;;;5012988;28;20042;-68
2021/11/09 02:31:16;;;;;;;21.33;8.90;;;5.90;99.90;;;;;;5011305;28;20133;-68
2021/11/09 02:33:44;;;;;;;17.98;8.80;;;5.90;99.90;;;;;;5012200;28;20050;-68
2021/11/09 02:36:12;;;;;;;19.70;9.00;;;5.90;99.90;;;;;;5012250;28;20050;-68
2021/11/09 02:38:40;;;;;;;19.10;8.35;;;5.90;99.90;;;;;;5011274;28;20050;-68
2021/11/09 02:41:08;;;;;;;19.65;8.73;;;5.90;99.90;;;;;;5012887;28;20046;-68
2021/11/09 02:43:35;;;;;;;17.25;8.95;;;5.90;99.90;;;;;;5007667;28;20050;-68
2021/11/09 02:49:00;;;;;;;19.15;8.70;;;5.90;99.90;;;;;;5010491;28;20066;-68
2021/11/09 02:54:02;;;;;;;17.90;8.30;;;5.90;99.90;;;;;;5013235;28;20474;-68
2021/11/09 02:56:45;;;;;;;17.80;8.05;;;5.90;99.90;;;;;;5011486;28;20046;-68
2021/11/09 02:59:26;;;;;;;16.05;8.32;;;5.90;99.90;;;;;;5000536;28;20046;-68
2021/11/09 03:10:09;;;;;;;20.33;8.65;;;5.90;99.90;;;;;;5007966;28;20076;-66
2021/11/09 03:12:40;;;;;;;14.02;7.95;;;5.80;99.90;;;;;;5010403;28;20046;-66
2021/11/09 03:15:12;;;;;;;17.15;8.00;;;5.80;99.90;;;;;;5010160;28;20057;-66
2021/11/09 03:17:46;;;;;;;16.58;7.90;;;5.80;99.90;;;;;;5011931;28;20052;-66
2021/11/09 03:45:37;;;;;;;20.52;8.95;;;5.70;99.90;;;;;;4969479;28;20110;-65
2021/11/09 03:48:10;;;;;;;16.63;8.35;;;5.70;99.90;;;;;;4970235;28;20105;-65
2021/11/09 03:50:39;;;;;;;18.00;9.27;;;5.60;99.90;;;;;;4970056;28;20055;-65
2021/11/09 03:53:24;;;;;;;17.73;8.43;;;5.60;99.90;;;;;;4970021;28;20062;-65
2021/11/09 03:58:30;;;;;;;19.20;9.32;;;5.60;99.90;;;;;;4969796;28;20478;-66
2021/11/09 04:01:03;;;;;;;18.00;8.02;;;5.50;99.90;;;;;;4969884;28;20069;-65
2021/11/09 04:07:01;;;;;;;19.98;7.88;;;5.40;99.90;;;;;;4969568;28;20073;-66
2021/11/09 04:16:52;;;;;;;15.30;7.55;;;5.10;99.90;;;;;;4969729;28;20054;-66
2021/11/09 04:22:16;;;;;;;17.13;8.30;;;5.00;99.90;;;;;;5000187;28;20061;-66
2021/11/09 04:25:11;;;;;;;19.15;8.98;;;5.00;99.90;;;;;;5005794;28;20046;-66
2021/11/09 04:30:27;;;;;;;15.45;8.07;;;4.80;99.90;;;;;;5010901;28;20042;-66
2021/11/09 05:02:50;;;;;;;18.75;10.75;;;3.90;99.90;;;;;;4947858;28;20051;-65
2021/11/09 05:10:49;;;;;;;15.60;7.85;;;3.80;99.90;;;;;;4954852;28;20047;-67
2021/11/09 05:13:16;;;;;;;18.73;7.97;;;3.70;99.90;;;;;;4950103;29;20082;-65
2021/11/09 05:15:43;;;;;;;17.75;8.57;;;3.70;99.90;;;;;;4949558;29;20063;-66
2021/11/09 05:18:11;;;;;;;16.05;8.05;;;3.60;99.90;;;;;;4996428;28;20119;-66
2021/11/09 05:20:38;;;;;;;18.30;8.10;;;3.60;99.90;;;;;;5001484;28;20046;-65
2021/11/09 05:23:05;;;;;;;14.65;8.50;;;3.60;99.90;;;;;;5010127;28;20038;-66
2021/11/09 05:25:33;;;;;;;16.92;8.27;;;3.50;99.90;;;;;;5010285;28;20663;-66
2021/11/09 05:28:01;;;;;;;16.67;9.77;;;3.50;99.90;;;;;;5009723;28;20038;-66
2021/11/09 05:30:29;;;;;;;19.42;9.32;;;3.50;99.90;;;;;;5010428;28;20097;-65
2021/11/09 05:32:59;;;;;;;14.80;8.43;;;3.40;99.90;;;;;;5009943;28;20065;-66
2021/11/09 05:35:27;;;;;;;21.75;9.30;;;3.50;99.90;;;;;;5010205;28;20038;-66
2021/11/09 05:37:57;;;;;;;20.95;10.25;;;3.40;99.90;;;;;;5013600;28;20445;-66
2021/11/09 05:40:31;;;;;;;17.55;8.57;;;3.40;99.90;;;;;;5001749;28;20042;-66
2021/11/09 05:42:58;;;;;;;15.95;8.90;;;3.40;99.90;;;;;;5012465;28;20485;-66
2021/11/09 05:45:27;;;;;;;18.27;8.88;;;3.30;99.90;;;;;;5013020;28;20124;-66
2021/11/09 05:47:54;;;;;;;19.38;9.32;;;3.30;99.90;;;;;;5012113;28;20566;-66
2021/11/09 05:50:22;;;;;;;15.13;8.18;;;3.30;99.90;;;;;;5013397;28;20096;-66
2021/11/09 05:52:50;;;;;;;21.05;10.15;;;3.30;99.90;;;;;;5013245;28;20065;-66
2021/11/09 05:55:17;;;;;;;19.63;9.00;;;3.20;99.90;;;;;;5013668;28;20147;-66
2021/11/09 05:57:45;;;;;;;17.13;9.38;;;3.30;99.90;;;;;;5010411;28;20057;-66
2021/11/09 06:00:13;;;;;;;20.35;9.60;;;3.20;99.90;;;;;;5013219;28;20040;-66
2021/11/09 06:02:41;;;;;;;18.02;9.02;;;3.20;99.90;;;;;;5018894;28;20069;-66
2021/11/09 06:05:09;;;;;;;25.25;12.32;;;3.20;99.90;;;;;;5013030;28;20143;-66
2021/11/09 06:07:36;;;;;;;19.45;9.93;;;3.10;99.90;;;;;;5013421;28;20053;-66
2021/11/09 06:10:05;;;;;;;17.52;9.35;;;3.10;99.90;;;;;;5013660;28;20045;-66
2021/11/09 06:12:33;;;;;;;16.88;9.05;;;3.10;99.90;;;;;;5013694;28;20519;-66
2021/11/09 06:15:01;;;;;;;18.23;9.20;;;3.10;99.90;;;;;;5013327;28;20046;-66
2021/11/09 06:17:28;;;;;;;18.17;8.18;;;3.10;99.90;;;;;;5023362;28;20107;-67
2021/11/09 06:19:55;;;;;;;17.83;9.57;;;3.10;99.90;;;;;;5017082;28;20046;-66
2021/11/09 06:22:22;;;;;;;22.83;9.55;;;3.00;99.90;;;;;;5021450;28;20476;-66
2021/11/09 06:24:50;;;;;;;19.27;8.55;;;3.10;99.90;;;;;;5014536;28;20030;-66
2021/11/09 06:27:18;;;;;;;18.42;9.52;;;3.10;99.90;;;;;;5022414;28;20100;-66
2021/11/09 06:29:45;;;;;;;22.23;9.70;;;3.10;99.90;;;;;;5005968;28;20049;-66
2021/11/09 06:32:15;;;;;;;16.20;9.32;;;3.20;99.90;;;;;;5013560;28;20425;-67
2021/11/09 06:34:42;;;;;;;15.70;9.18;;;3.30;99.90;;;;;;5001595;28;20038;-67
2021/11/09 06:37:09;;;;;;;16.52;9.52;;;3.30;99.90;;;;;;5012621;28;20064;-67
2021/11/09 06:39:37;;;;;;;21.48;10.35;;;3.40;99.90;;;;;;5012734;28;20061;-67
2021/11/09 06:42:06;;;;;;;20.17;9.60;;;3.40;99.90;;;;;;5012765;28;20120;-66
2021/11/09 06:44:33;;;;;;;19.05;9.35;;;3.50;99.90;;;;;;5012868;28;20096;-66
2021/11/09 06:47:00;;;;;;;21.92;9.65;;;3.50;99.90;;;;;;5012243;28;20034;-66
2021/11/09 06:49:28;;;;;;;20.45;10.63;;;3.60;99.90;;;;;;5004775;28;20126;-65
2021/11/09 06:51:55;;;;;;;22.08;10.07;;;3.60;99.90;;;;;;5006208;28;20046;-66
2021/11/09 06:54:23;;;;;;;20.83;9.50;;;3.70;99.90;;;;;;5001070;28;20161;-66
2021/11/09 06:56:51;;;;;;;19.30;8.50;;;3.70;99.90;;;;;;5006248;28;20041;-66
2021/11/09 06:59:20;;;;;;;16.58;8.88;;;3.80;99.90;;;;;;4998415;28;20050;-66
2021/11/09 07:01:49;;;;;;;24.45;9.20;;;3.80;99.90;;;;;;5010077;28;20508;-65
2021/11/09 07:04:16;;;;;;;17.13;8.45;;;3.80;99.90;;;;;;4997700;28;20044;-66
2021/11/09 07:06:44;;;;;;;17.25;9.60;;;3.90;99.90;;;;;;5012434;28;20259;-66
2021/11/09 07:09:13;;;;;;;14.73;8.55;;;3.90;99.90;;;;;;5012199;28;20038;-66
2021/11/09 07:11:40;;;;;;;18.10;7.90;;;3.90;99.90;;;;;;5011761;28;20100;-66
2021/11/09 07:14:08;;;;;;;15.90;7.82;;;4.00;99.90;;;;;;5011155;28;20045;-66
2021/11/09 07:16:36;;;;;;;18.00;8.55;;;4.10;99.90;;;;;;5011755;28;20046;-66
2021/11/09 07:19:08;;;;;;;24.93;8.60;;;4.10;99.90;;;;;;5010325;28;20148;-66
2021/11/09 07:21:35;;;;;;;18.85;8.65;;;4.20;99.90;;;;;;4997823;28;20050;-67
2021/11/09 07:24:03;;;;;;;18.15;9.50;;;4.20;99.90;;;;;;5010921;28;20054;-66
2021/11/09 07:26:30;;;;;;;19.65;9.48;;;4.30;99.90;;;;;;5025709;28;20042;-67
2021/11/09 07:28:58;;;;;;;17.58;8.35;;;4.40;99.90;;;;;;5011071;28;20385;-66
2021/11/09 07:31:29;;;;;;;19.17;7.78;;;4.40;99.90;;;;;;5011418;28;20042;-66
2021/11/09 07:33:56;;;;;;;13.13;7.78;;;4.50;99.90;;;;;;5004114;28;20077;-66
2021/11/09 07:36:25;;;;;;;11.25;6.70;;;4.60;99.90;;;;;;4979755;28;20109;-66
2021/11/09 07:38:53;;;;;;;14.77;7.50;;;4.70;99.90;;;;;;5006057;28;20049;-67
2021/11/09 07:41:20;;;;;;;12.38;6.40;;;4.80;99.90;;;;;;5004993;28;20477;-67
2021/11/09 07:43:48;;;;;;;17.70;7.25;;;4.80;99.90;;;;;;5009500;28;20069;-67
2021/11/09 07:46:15;;;;;;;18.27;7.75;;;4.90;99.90;;;;;;5000879;28;20046;-67
2021/11/09 07:48:43;;;;;;;20.85;7.30;;;5.00;99.90;;;;;;5006873;28;20055;-67
2021/11/09 07:51:10;;;;;;;19.98;7.63;;;5.10;99.90;;;;;;4993082;28;20034;-67
2021/11/09 07:53:39;;;;;;;19.92;8.55;;;5.20;99.90;;;;;;5003196;28;20048;-67
2021/11/09 07:58:48;;;;;;;14.10;6.95;;;5.30;99.90;;;;;;5010500;28;20132;-68
2021/11/09 08:01:21;;;;;;;14.20;7.80;;;5.40;99.90;;;;;;5008129;28;20365;-66
2021/11/09 08:09:23;;;;;;;11.80;6.75;;;5.70;99.90;;;;;;5010687;28;20049;-66
2021/11/09 08:11:50;;;;;;;13.60;6.57;;;5.80;99.90;;;;;;5025519;28;20044;-67
2021/11/09 08:14:18;;;;;;;15.73;7.22;;;5.80;99.90;;;;;;5008217;28;20412;-67
2021/11/09 08:16:48;;;;;;;16.27;6.68;;;5.90;99.90;;;;;;5009353;28;20069;-66
2021/11/09 08:19:17;;;;;;;12.70;6.10;;;5.90;99.90;;;;;;5010252;28;20504;-66
2021/11/09 08:21:48;;;;;;;28.00;13.57;;;6.10;99.90;;;;;;5021685;28;20065;-67
2021/11/09 08:24:18;;;;;;;23.27;11.07;;;6.10;99.90;;;;;;5004620;28;20037;-67
2021/11/09 08:26:48;;;;;;;17.42;7.35;;;6.30;99.90;;;;;;5006210;28;20628;-66
2021/11/09 08:29:16;;;;;;;14.55;6.72;;;6.30;99.90;;;;;;5009883;28;20033;-66
2021/11/09 08:31:46;;;;;;;13.60;6.25;;;6.50;99.90;;;;;;5009144;28;20042;-67
2021/11/09 08:34:15;;;;;;;15.20;6.47;;;6.50;99.90;;;;;;5011657;28;20060;-66
2021/11/09 08:36:45;;;;;;;17.48;6.65;;;6.70;99.90;;;;;;5010361;28;20045;-67
2021/11/09 08:39:20;;;;;;;18.08;6.43;;;6.80;99.90;;;;;;5009120;28;20037;-66
2021/11/09 08:41:57;;;;;;;18.42;6.80;;;6.90;99.90;;;;;;5007091;28;20042;-66
2021/11/09 08:44:28;;;;;;;10.77;5.97;;;7.00;99.90;;;;;;5021050;28;20053;-66
2021/11/09 08:47:02;;;;;;;15.75;5.75;;;7.10;99.90;;;;;;5023829;28;20041;-66
2021/11/09 08:49:30;;;;;;;15.45;5.43;;;7.30;99.90;;;;;;5003100;28;20050;-67
2021/11/09 08:52:02;;;;;;;12.25;5.47;;;7.40;99.90;;;;;;5010018;28;20125;-67
2021/11/09 08:54:36;;;;;;;15.80;5.70;;;7.50;99.90;;;;;;5010436;28;20065;-67
2021/11/09 09:05:14;;;;;;;11.18;5.05;;;8.10;99.90;;;;;;5010090;28;20042;-66
2021/11/09 09:07:42;;;;;;;13.88;5.20;;;8.30;99.90;;;;;;5010590;28;20050;-66
2021/11/09 09:10:13;;;;;;;11.95;5.55;;;8.40;99.90;;;;;;5009305;28;20073;-66
2021/11/09 09:12:42;;;;;;;8.88;5.00;;;8.50;99.90;;;;;;5013711;28;20041;-66
2021/11/09 09:15:12;;;;;;;11.63;5.80;;;8.60;99.90;;;;;;5014287;28;20049;-67
2021/11/09 09:17:40;;;;;;;13.82;4.10;;;8.80;99.90;;;;;;5013804;28;20038;-67
2021/11/09 09:20:21;;;;;;;10.82;4.18;;;8.90;99.90;;;;;;5014508;28;20049;-66
2021/11/09 09:57:41;;;;;;;7.45;2.72;;;10.70;99.90;;;;;;5005116;28;20042;-66
2021/11/09 10:00:10;;;;;;;10.32;3.17;;;10.90;99.90;;;;;;5012655;28;20515;-66
2021/11/09 10:02:55;;;;;;;8.52;3.00;;;10.90;99.90;;;;;;5010020;28;20052;-67
2021/11/09 10:05:24;;;;;;;11.68;3.40;;;11.00;99.90;;;;;;5013342;28;20042;-66
2021/11/09 10:07:57;;;;;;;5.53;2.60;;;11.10;99.90;;;;;;5012322;28;20038;-66
2021/11/09 10:10:34;;;;;;;9.07;2.88;;;11.20;99.90;;;;;;5012221;28;20144;-65
2021/11/09 10:13:10;;;;;;;10.75;2.65;;;11.30;99.90;;;;;;5007787;28;20046;-66
2021/11/09 10:15:42;;;;;;;9.75;3.17;;;11.30;99.90;;;;;;5010972;28;20050;-66
2021/11/09 10:18:13;;;;;;;5.75;2.30;;;11.40;99.90;;;;;;5012340;28;20097;-66
2021/11/09 10:20:46;;;;;;;5.13;2.35;;;11.40;99.90;;;;;;5012757;28;20767;-66
2021/11/09 10:23:17;;;;;;;10.45;2.85;;;11.50;99.90;;;;;;5009993;28;20044;-65
2021/11/09 10:25:44;;;;;;;5.47;2.70;;;11.50;99.90;;;;;;5000028;28;20054;-66
2021/11/09 10:28:18;;;;;;;10.48;3.38;;;11.50;99.90;;;;;;5011786;28;20065;-67
2021/11/09 10:30:57;;;;;;;10.02;3.35;;;11.60;99.90;;;;;;5011273;28;20455;-68
2021/11/09 10:33:27;;;;;;;11.57;4.15;;;11.40;99.90;;;;;;5011405;28;20078;-67
2021/11/09 10:35:55;;;;;;;15.43;3.97;;;11.30;99.90;;;;;;5011024;28;20068;-67
2021/11/09 10:38:33;;;;;;;9.38;3.40;;;11.70;99.90;;;;;;5012704;28;20045;-66
2021/11/09 10:41:04;;;;;;;9.23;3.20;;;12.10;99.90;;;;;;5010344;28;20091;-66
2021/11/09 10:43:32;;;;;;;10.85;3.25;;;12.20;99.90;;;;;;5012422;28;20145;-66
2021/11/09 10:46:00;;;;;;;15.80;3.55;;;12.20;99.90;;;;;;5007936;28;20050;-66
2021/11/09 10:48:28;;;;;;;12.85;2.90;;;12.20;99.90;;;;;;5007154;28;20046;-65
2021/11/09 10:50:58;;;;;;;8.75;3.05;;;12.20;99.90;;;;;;5009902;28;20042;-65
2021/11/09 10:56:57;;;;;;;9.43;3.30;;;12.90;99.90;;;;;;5010909;28;20046;-65
2021/11/09 10:59:10;;;;;;;8.18;3.20;;;12.80;99.90;;;;;;4995371;28;20065;-66
2021/11/09 11:04:38;;;;;;;7.65;2.80;;;17.00;99.90;;;;;;5002113;28;20057;-66
2021/11/09 11:07:08;;;;;;;6.13;2.50;;;18.20;99.90;;;;;;5011210;28;20054;-65
2021/11/09 11:09:36;;;;;;;7.05;2.47;;;19.00;99.90;;;;;;5010326;28;20046;-66
2021/11/09 11:12:06;;;;;;;5.20;2.28;;;19.00;99.90;;;;;;5010999;28;20048;-66
2021/11/09 11:14:36;;;;;;;4.65;2.60;;;19.50;99.90;;;;;;5017453;28;20041;-65
2021/11/09 11:17:17;;;;;;;5.03;2.15;;;20.00;99.90;;;;;;5000511;28;20061;-67
2021/11/09 11:19:53;;;;;;;4.72;2.17;;;20.40;99.90;;;;;;5024947;28;20061;-65
2021/11/09 11:22:28;;;;;;;5.57;2.27;;;21.80;99.90;;;;;;4994729;28;20050;-65
2021/11/09 11:24:59;;;;;;;4.85;2.17;;;22.20;98.50;;;;;;5010512;28;20053;-66
2021/11/09 11:27:32;;;;;;;3.95;2.10;;;23.00;97.20;;;;;;5010760;28;20428;-66
2021/11/09 11:30:04;;;;;;;6.43;2.30;;;23.60;94.40;;;;;;5027215;28;20045;-66
2021/11/09 11:32:32;;;;;;;6.40;2.08;;;23.40;94.50;;;;;;5011803;28;20060;-66
2021/11/09 11:35:03;;;;;;;6.50;2.15;;;23.10;93.60;;;;;;5000639;28;20042;-65
2021/11/09 11:37:30;;;;;;;5.38;2.05;;;23.50;92.10;;;;;;5006694;28;20045;-65
2021/11/09 11:40:04;;;;;;;6.63;2.33;;;23.30;92.00;;;;;;5006316;28;20042;-65
2021/11/09 11:42:39;;;;;;;5.57;2.25;;;23.60;92.10;;;;;;4993123;28;20529;-66
2021/11/09 11:45:07;;;;;;;6.15;2.38;;;23.40;90.90;;;;;;4996035;28;20053;-66
2021/11/09 11:47:34;;;;;;;5.47;1.98;;;23.20;91.00;;;;;;5007155;28;20042;-66
2021/11/09 11:50:12;;;;;;;4.90;2.40;;;23.60;91.00;;;;;;5003435;28;20046;-66
2021/11/09 11:52:50;;;;;;;5.70;2.30;;;24.30;91.00;;;;;;5003403;28;20042;-65
2021/11/09 11:55:27;;;;;;;7.68;2.10;;;24.90;86.60;;;;;;5003630;28;20056;-65
2021/11/09 11:58:07;;;;;;;8.10;2.20;;;24.60;88.60;;;;;;5001072;28;20052;-65
2021/11/09 12:00:41;;;;;;;4.97;2.25;;;24.60;85.50;;;;;;5003299;28;20073;-66
2021/11/09 12:03:17;;;;;;;6.68;2.92;;;25.30;84.10;;;;;;4999736;28;20381;-66
2021/11/09 12:05:47;;;;;;;8.18;3.05;;;25.00;83.70;;;;;;5010087;28;20062;-65
2021/11/09 12:08:34;;;;;;;8.43;2.90;;;25.30;83.00;;;;;;5000033;28;20450;-65
2021/11/09 12:11:03;;;;;;;4.95;1.98;;;25.30;82.30;;;;;;4993438;28;20065;-66
2021/11/09 12:13:55;;;;;;;6.57;1.95;;;25.20;82.10;;;;;;5006694;28;20125;-66
2021/11/09 12:16:56;;;;;;;5.10;1.90;;;25.50;81.40;;;;;;5008976;28;20054;-66
2021/11/09 12:19:50;;;;;;;8.05;2.35;;;25.30;80.50;;;;;;5009881;28;20128;-66
2021/11/09 12:22:22;;;;;;;5.50;2.30;;;26.00;79.60;;;;;;5005302;28;20050;-66
2021/11/09 12:24:53;;;;;;;5.35;2.22;;;25.50;80.00;;;;;;4993753;28;20097;-66
2021/11/09 12:27:22;;;;;;;5.45;2.22;;;25.60;79.90;;;;;;4998938;28;20381;-66
2021/11/09 12:29:53;;;;;;;7.63;2.22;;;26.40;80.10;;;;;;5007761;28;20060;-66
2021/11/09 12:32:21;;;;;;;7.78;1.70;;;26.20;76.20;;;;;;4997221;28;20089;-66
2021/11/09 12:35:03;;;;;;;7.07;2.10;;;26.30;76.10;;;;;;5010633;28;20192;-66
2021/11/09 12:37:40;;;;;;;6.78;1.65;;;25.60;76.70;;;;;;5004746;28;20144;-67
2021/11/09 12:40:26;;;;;;;4.95;2.17;;;25.10;75.60;;;;;;5002219;28;20050;-66
2021/11/09 12:43:09;;;;;;;3.60;1.63;;;25.30;75.60;;;;;;5002129;28;20050;-67
2021/11/09 12:45:44;;;;;;;7.75;1.60;;;25.30;77.40;;;;;;4996081;28;20499;-66
2021/11/09 12:48:14;;;;;;;2.95;1.20;;;25.10;77.00;;;;;;4993747;28;20038;-66
2021/11/09 12:50:54;;;;;;;3.00;1.30;;;25.10;75.00;;;;;;4997817;28;20050;-67
2021/11/09 12:53:23;;;;;;;5.63;1.25;;;24.60;74.80;;;;;;4993135;28;20035;-66
2021/11/09 12:56:12;;;;;;;4.88;1.55;;;24.60;75.20;;;;;;5007536;28;20104;-66
2021/11/09 12:59:01;;;;;;;4.13;1.73;;;24.70;76.00;;;;;;5003566;28;20137;-66
2021/11/09 13:09:36;;;;;;;5.57;1.55;;;24.50;74.60;;;;;;5008955;28;20208;-66
2021/11/09 13:12:05;;;;;;;5.57;1.70;;;24.30;76.00;;;;;;5007858;28;20042;-66
2021/11/09 13:14:38;;;;;;;3.65;1.42;;;24.10;74.60;;;;;;5002732;28;20473;-66
2021/11/09 13:17:49;;;;;;;4.10;1.52;;;24.10;74.60;;;;;;5002201;28;20049;-66
2021/11/09 13:20:23;;;;;;;5.90;2.05;;;23.90;73.80;;;;;;5003887;28;20056;-66
2021/11/09 13:23:03;;;;;;;5.45;1.70;;;23.70;74.90;;;;;;5010186;28;20046;-66
2021/11/09 13:25:47;;;;;;;4.80;1.63;;;23.70;75.30;;;;;;4997528;28;20057;-66
2021/11/09 13:28:36;;;;;;;4.72;1.60;;;23.40;75.00;;;;;;4994328;28;20117;-66
2021/11/09 13:31:09;;;;;;;5.25;1.40;;;23.60;75.10;;;;;;4995631;28;20113;-66
2021/11/09 13:33:48;;;;;;;3.70;1.60;;;24.60;74.00;;;;;;5003803;28;20092;-66
2021/11/09 13:36:23;;;;;;;4.35;1.40;;;26.00;73.50;;;;;;5006851;28;20046;-66
2021/11/09 13:38:51;;;;;;;7.45;1.60;;;27.50;70.60;;;;;;5000374;28;20046;-66
2021/11/09 13:41:22;;;;;;;5.43;1.80;;;28.10;69.50;;;;;;5008589;28;20042;-66
2021/11/09 13:43:54;;;;;;;5.45;1.38;;;28.30;68.70;;;;;;5007958;28;20664;-66
2021/11/09 13:46:29;;;;;;;3.75;1.30;;;29.00;68.90;;;;;;5003949;28;20062;-66
2021/11/09 13:49:00;;;;;;;3.75;1.70;;;29.50;66.30;;;;;;5002443;28;20128;-66
2021/11/09 13:51:39;;;;;;;7.37;1.90;;;30.20;65.90;;;;;;5009517;28;20095;-66
2021/11/09 13:54:19;;;;;;;4.18;1.50;;;30.10;64.70;;;;;;5009840;28;20049;-67
2021/11/09 13:56:51;;;;;;;5.82;1.80;;;30.30;64.70;;;;;;5010565;28;20057;-66
2021/11/09 13:59:33;;;;;;;4.18;1.65;;;30.90;63.40;;;;;;5011979;28;20053;-66
2021/11/09 14:02:12;;;;;;;5.30;1.60;;;31.10;64.00;;;;;;5009713;28;20049;-66
2021/11/09 14:17:53;;;;;;;4.28;1.38;;;28.40;62.30;;;;;;5012854;28;20045;-66
2021/11/09 14:20:24;;;;;;;3.22;1.17;;;28.50;61.90;;;;;;5011844;28;20049;-67
2021/11/09 14:23:03;;;;;;;3.37;1.30;;;29.30;61.90;;;;;;5012603;28;20045;-67
2021/11/09 14:25:31;;;;;;;3.72;1.55;;;29.50;61.10;;;;;;5010757;28;20050;-67
2021/11/09 14:27:58;;;;;;;4.55;1.55;;;29.80;60.70;;;;;;5012994;28;20050;-67
2021/11/09 14:30:27;;;;;;;4.30;1.65;;;29.30;60.60;;;;;;5012118;28;20058;-67
2021/11/09 14:33:16;;;;;;;3.95;1.50;;;29.10;61.40;;;;;;5012451;28;20052;-67
2021/11/09 14:35:43;;;;;;;4.82;1.50;;;29.10;61.00;;;;;;5011999;28;20121;-67
2021/11/09 14:38:12;;;;;;;3.95;1.35;;;28.70;61.60;;;;;;5012430;28;20469;-67
2021/11/09 14:40:56;;;;;;;5.32;1.60;;;28.80;61.30;;;;;;5011302;28;20074;-67
2021/11/09 14:43:30;;;;;;;4.30;1.90;;;28.70;61.20;;;;;;5012670;28;20129;-66
2021/11/09 14:46:09;;;;;;;3.25;1.50;;;28.00;61.20;;;;;;5007597;28;20077;-67
2021/11/09 14:51:18;;;;;;;3.15;1.30;;;27.00;62.90;;;;;;5005375;28;20049;-66
2021/11/09 14:56:32;;;;;;;4.63;1.73;;;26.70;62.80;;;;;;4997406;28;20058;-66
2021/11/09 14:59:10;;;;;;;6.72;1.90;;;26.30;63.80;;;;;;5010347;28;20116;-66
2021/11/09 15:02:04;;;;;;;3.60;1.70;;;26.30;63.70;;;;;;5012228;28;20056;-66
2021/11/09 15:04:55;;;;;;;5.35;1.90;;;26.40;63.00;;;;;;5011740;28;20492;-66
2021/11/09 15:07:30;;;;;;;5.15;2.03;;;25.50;63.40;;;;;;5011490;28;20053;-66
2021/11/09 15:10:13;;;;;;;3.88;1.60;;;24.70;65.00;;;;;;5010309;28;20391;-66
2021/11/09 15:31:45;;;;;;;5.30;1.35;;;20.30;72.80;;;;;;5011331;28;20385;-67
2021/11/09 15:34:23;;;;;;;2.95;1.20;;;19.50;74.50;;;;;;5010250;28;20374;-67
2021/11/09 15:39:37;;;;;;;3.30;1.70;;;17.70;77.50;;;;;;5010784;28;20826;-67
2021/11/09 15:42:06;;;;;;;3.90;1.40;;;16.50;80.70;;;;;;4999086;28;20038;-66
2021/11/09 15:44:33;;;;;;;3.10;1.65;;;15.40;82.90;;;;;;5010524;28;20125;-66
2021/11/09 15:47:01;;;;;;;3.30;1.35;;;14.30;86.40;;;;;;5009357;28;20052;-66
2021/11/09 15:49:28;;;;;;;3.38;1.40;;;13.40;88.30;;;;;;5010436;28;20515;-66
2021/11/09 15:51:57;;;;;;;3.63;1.50;;;12.60;90.20;;;;;;5009838;28;20100;-66
2021/11/09 15:54:45;;;;;;;7.65;2.50;;;12.00;91.30;;;;;;5000927;28;20042;-67
2021/11/09 15:57:13;;;;;;;3.50;1.20;;;11.30;92.70;;;;;;5011275;28;20049;-65
2021/11/09 15:59:41;;;;;;;4.25;1.40;;;10.80;94.00;;;;;;5008924;28;20082;-67
2021/11/09 16:02:09;;;;;;;4.13;1.60;;;10.40;95.60;;;;;;5005889;28;20042;-67
2021/11/09 16:04:40;;;;;;;3.70;1.70;;;10.00;96.90;;;;;;5010406;28;20046;-67
2021/11/09 16:07:09;;;;;;;4.60;1.98;;;9.70;98.60;;;;;;5009125;28;20403;-66
2021/11/09 16:09:40;;;;;;;6.28;1.90;;;9.40;99.90;;;;;;4996075;28;20045;-66
2021/11/09 16:12:08;;;;;;;4.72;2.00;;;9.10;99.90;;;;;;5022208;28;20136;-67
2021/11/09 16:14:36;;;;;;;4.88;2.50;;;8.90;99.90;;;;;;5002011;28;20088;-67
2021/11/09 16:17:03;;;;;;;5.50;2.70;;;8.70;99.90;;;;;;5011410;28;20045;-67
2021/11/09 16:19:31;;;;;;;5.40;2.72;;;8.50;99.90;;;;;;5006563;28;20049;-67
2021/11/09 16:21:59;;;;;;;6.10;2.80;;;8.30;99.90;;;;;;5010438;28;20111;-67
2021/11/09 16:24:26;;;;;;;4.65;2.58;;;8.10;99.90;;;;;;5003259;28;20061;-67
2021/11/09 16:26:53;;;;;;;5.68;2.55;;;8.00;99.90;;;;;;5000266;28;20436;-67
2021/11/09 16:29:41;;;;;;;6.50;3.20;;;7.90;99.90;;;;;;4993942;28;20413;-66